Ellsworth, MI (49729)

8:39 PM EDT on April 01, 2015 (GMT -0400)
2.1 MI NNW of East Jordan(West Field) | | Change Station
CLOSE
Current Station
Personal Weather Station
Location: East Jordan, MI
Elevation: 640 ft
Nearby Weather Stations

Elev 640 ft 45.19 °N, 85.15 °W | Updated 3 seconds ago

Partly Cloudy
Partly Cloudy
52.8 °F
Feels Like 52.8 °F
N
0.0
Wind Variable Wind from East
Gusts 8.0 mph

Today
High -- | Low -- °F
--% Chance of Precip.
Yesterday
High -- | Low -- °F
Precip. -- in
7:21 AM 8:08 PM
Waxing Gibbous, 94% visible
Pressure 29.83 in
Visibility 10.0 miles
Clouds Clear
Dew Point 30 °F
Humidity 42%
Rainfall 0.00 in
Snow Depth Not available.
UV 0 out of 12
Pollen 4.70 out of 12
Air Quality Not available.
Flu Activity Not available.
METAR KACB 020035Z AUTO 17006KT 10SM CLR 13/M02 A2983 RMK AO2 T01271024

More Conditions Fewer Conditions

Pressure 29.83 in
Visibility 10.0 miles
Clouds Clear
Dew Point 30 °F
Humidity 42%
Rainfall 0.00 in
Snow Depth Not available.
UV 0 out of 12
Pollen 4.70 out of 12
Air Quality Not available.
Flu Activity Not available.
METAR KACB 020035Z AUTO 17006KT 10SM CLR 13/M02 A2983 RMK AO2 T01271024

More Conditions Fewer Conditions

Nowcast | as of 8:00 PM EDT on April 1, 2015

At 9 PM...mostly cloudy. Temperature 50. South winds 9 mph. At 11 PM...mostly cloudy. Temperature 47. South winds 8 mph. At 1 am...mostly cloudy. Temperature 46. South winds 9 mph. At 3 am...mostly cloudy. Chance of thunderstorms. Temperature 45. South winds 9 mph.

×

10-Day Weather Forecast

Almanac

Astronomy

Apr. 01, 2015 Rise Set
Actual Time
Civil Twilight
Nautical Twilight
Astronomical Twilight
Moon
Length of Visible Light
Length of Day
Tomorrow will be .
, % of the Moon is Illuminated

Today's Extremes

State Highs State Lows

Community

WunderPhotos

Upload Photos

1,810,131 photos uploaded!

WunderBlogs® & News

Nearby

Air Quality

  Air Quality AQ Index Pollutant
Not available.

Snow Depth

Station Depth Elevation

Earthquake Activity

City Distance Mag. Time & Date
Minimum magnitude displayed is 2.5.

Coastal Water Temperatures

Place Temperature

Stations

Nearby Weather Stations

Station Location Temp. Windchill Dew Point Humidity Wind Precip. Elev Updated Type